sensor_id;sensor_type;location;lat;lon;timestamp;P1;P2;P0
76045;PMS7003;64741;41.730;44.788;2023-06-14T00:02:18;0.8;0.6;0.2
76045;PMS7003;64741;41.730;44.788;2023-06-14T00:07:36;1.4;0.6;0.2
76045;PMS7003;64741;41.730;44.788;2023-06-14T00:12:22;0.8;0.6;0.6
76045;PMS7003;64741;41.730;44.788;2023-06-14T00:17:12;2;1.2;0.6
76045;PMS7003;64741;41.730;44.788;2023-06-14T00:21:50;0.6;0.6;0.4
76045;PMS7003;64741;41.730;44.788;2023-06-14T00:27:30;0.6;0.6;0.4
76045;PMS7003;64741;41.730;44.788;2023-06-14T00:32:18;1;0.8;0.4
76045;PMS7003;64741;41.730;44.788;2023-06-14T00:37:30;1;1;0.8
76045;PMS7003;64741;41.730;44.788;2023-06-14T00:42:25;1.2;1;0.6
76045;PMS7003;64741;41.730;44.788;2023-06-14T00:47:30;0.8;0.2;0
76045;PMS7003;64741;41.730;44.788;2023-06-14T00:52:20;1.2;1;0.4
76045;PMS7003;64741;41.730;44.788;2023-06-14T00:57:30;0.8;0.2;0.2
76045;PMS7003;64741;41.730;44.788;2023-06-14T01:02:16;1.4;0.6;0
76045;PMS7003;64741;41.730;44.788;2023-06-14T01:07:31;0.4;0.2;0.2
76045;PMS7003;64741;41.730;44.788;2023-06-14T01:12:21;0.5;0.5;0
76045;PMS7003;64741;41.730;44.788;2023-06-14T01:17:10;0.6;0.2;0
76045;PMS7003;64741;41.730;44.788;2023-06-14T01:22:18;0.6;0.2;0
76045;PMS7003;64741;41.730;44.788;2023-06-14T01:27:28;0.8;0.6;0.4
76045;PMS7003;64741;41.730;44.788;2023-06-14T01:32:12;1.4;0.8;0.4
76045;PMS7003;64741;41.730;44.788;2023-06-14T01:37:30;1.8;1.4;1.2
76045;PMS7003;64741;41.730;44.788;2023-06-14T01:42:16;2.2;1.4;1
76045;PMS7003;64741;41.730;44.788;2023-06-14T01:47:30;1.2;1;0.6
76045;PMS7003;64741;41.730;44.788;2023-06-14T01:52:20;1;1;0.4
76045;PMS7003;64741;41.730;44.788;2023-06-14T01:57:31;1.6;1;0.8
76045;PMS7003;64741;41.730;44.788;2023-06-14T02:01:52;1.4;1.4;1
76045;PMS7003;64741;41.730;44.788;2023-06-14T02:07:30;1.2;1.2;1
76045;PMS7003;64741;41.730;44.788;2023-06-14T02:12:20;1.4;1;0.6
76045;PMS7003;64741;41.730;44.788;2023-06-14T02:17:30;1.6;1.2;0.4
76045;PMS7003;64741;41.730;44.788;2023-06-14T02:22:18;0.8;0.6;0.2
76045;PMS7003;64741;41.730;44.788;2023-06-14T02:27:30;1.2;1;0.4
76045;PMS7003;64741;41.730;44.788;2023-06-14T02:32:18;1.2;0.8;0.4
76045;PMS7003;64741;41.730;44.788;2023-06-14T02:37:30;1.8;1.4;0.6
76045;PMS7003;64741;41.730;44.788;2023-06-14T02:42:18;0.6;0.4;0.2
76045;PMS7003;64741;41.730;44.788;2023-06-14T02:47:30;1.4;1;0.4
76045;PMS7003;64741;41.730;44.788;2023-06-14T02:52:20;0.6;0;0
76045;PMS7003;64741;41.730;44.788;2023-06-14T02:57:24;1.2;1.2;0.6
76045;PMS7003;64741;41.730;44.788;2023-06-14T03:02:20;0.6;0.6;0.2
76045;PMS7003;64741;41.730;44.788;2023-06-14T03:07:30;1;1;0.6
76045;PMS7003;64741;41.730;44.788;2023-06-14T03:12:20;1.4;0.6;0
76045;PMS7003;64741;41.730;44.788;2023-06-14T03:17:28;0.8;0.8;0.2
76045;PMS7003;64741;41.730;44.788;2023-06-14T03:22:20;0.4;0.4;0
76045;PMS7003;64741;41.730;44.788;2023-06-14T03:27:28;1;0.8;0.2
76045;PMS7003;64741;41.730;44.788;2023-06-14T03:32:10;0.4;0.2;0
76045;PMS7003;64741;41.730;44.788;2023-06-14T03:37:28;1;0.6;0.4
76045;PMS7003;64741;41.730;44.788;2023-06-14T03:42:18;0.8;0.4;0.2
76045;PMS7003;64741;41.730;44.788;2023-06-14T03:47:30;1.2;0.2;0.2
76045;PMS7003;64741;41.730;44.788;2023-06-14T03:52:18;0.8;0.8;0.6
76045;PMS7003;64741;41.730;44.788;2023-06-14T03:57:30;0.6;0.6;0.4
76045;PMS7003;64741;41.730;44.788;2023-06-14T04:02:18;1.2;0.4;0
76045;PMS7003;64741;41.730;44.788;2023-06-14T04:07:30;0.6;0.6;0.2
76045;PMS7003;64741;41.730;44.788;2023-06-14T04:12:20;1.2;0.6;0.2
76045;PMS7003;64741;41.730;44.788;2023-06-14T04:17:30;0.8;0.8;0.2
76045;PMS7003;64741;41.730;44.788;2023-06-14T04:22:20;1.4;0.6;0.4
76045;PMS7003;64741;41.730;44.788;2023-06-14T04:27:28;2;1.2;0.6
76045;PMS7003;64741;41.730;44.788;2023-06-14T04:32:20;3.2;1.2;1
76045;PMS7003;64741;41.730;44.788;2023-06-14T04:37:28;2.4;2;1.2
76045;PMS7003;64741;41.730;44.788;2023-06-14T04:42:18;2.6;1.8;1.2
76045;PMS7003;64741;41.730;44.788;2023-06-14T04:47:30;1.4;1;0.8
76045;PMS7003;64741;41.730;44.788;2023-06-14T04:52:20;3;1.6;1.2
76045;PMS7003;64741;41.730;44.788;2023-06-14T04:57:30;3;1.6;1
76045;PMS7003;64741;41.730;44.788;2023-06-14T05:02:18;2.6;1.2;0.4
76045;PMS7003;64741;41.730;44.788;2023-06-14T05:06:44;1.2;0.8;0.2
76045;PMS7003;64741;41.730;44.788;2023-06-14T05:12:22;2;1.4;0.8
76045;PMS7003;64741;41.730;44.788;2023-06-14T05:17:30;1.2;0.8;0.8
76045;PMS7003;64741;41.730;44.788;2023-06-14T05:22:20;1.6;1.4;0.6
76045;PMS7003;64741;41.730;44.788;2023-06-14T05:27:30;2.2;1.8;1.2
76045;PMS7003;64741;41.730;44.788;2023-06-14T05:32:20;2;1.8;1.2
76045;PMS7003;64741;41.730;44.788;2023-06-14T05:37:30;1.6;1.4;1
76045;PMS7003;64741;41.730;44.788;2023-06-14T05:42:18;2.4;1.6;0.6
76045;PMS7003;64741;41.730;44.788;2023-06-14T05:47:30;1.2;1.2;1
76045;PMS7003;64741;41.730;44.788;2023-06-14T05:52:20;3;1.8;1.2
76045;PMS7003;64741;41.730;44.788;2023-06-14T05:57:32;1.6;1.2;0.8
76045;PMS7003;64741;41.730;44.788;2023-06-14T06:02:20;2.4;1.6;1.4
76045;PMS7003;64741;41.730;44.788;2023-06-14T06:06:58;2;1.4;0.8
76045;PMS7003;64741;41.730;44.788;2023-06-14T06:12:22;2.6;2;1.4
76045;PMS7003;64741;41.730;44.788;2023-06-14T06:17:30;1.4;1.2;1
76045;PMS7003;64741;41.730;44.788;2023-06-14T06:22:20;2.5;1.5;1.3
76045;PMS7003;64741;41.730;44.788;2023-06-14T06:27:00;1.6;1.2;1
76045;PMS7003;64741;41.730;44.788;2023-06-14T06:32:24;2.2;1.4;1
76045;PMS7003;64741;41.730;44.788;2023-06-14T06:37:32;1.8;1.6;0.8
76045;PMS7003;64741;41.730;44.788;2023-06-14T06:42:20;1.6;1.2;0.8
76045;PMS7003;64741;41.730;44.788;2023-06-14T06:47:30;2.4;1.2;1
76045;PMS7003;64741;41.730;44.788;2023-06-14T06:52:22;1.2;1;0.2
76045;PMS7003;64741;41.730;44.788;2023-06-14T06:57:32;0.6;0.6;0.4
76045;PMS7003;64741;41.730;44.788;2023-06-14T07:02:20;1;0.8;0.4
76045;PMS7003;64741;41.730;44.788;2023-06-14T07:07:30;1.6;1.6;1
76045;PMS7003;64741;41.730;44.788;2023-06-14T07:12:22;2.2;2;1.4
76045;PMS7003;64741;41.730;44.788;2023-06-14T07:17:32;2.4;1.6;1.2
76045;PMS7003;64741;41.730;44.788;2023-06-14T07:22:20;2.4;2.2;1.4
76045;PMS7003;64741;41.730;44.788;2023-06-14T07:27:32;3;2.2;1
76045;PMS7003;64741;41.730;44.788;2023-06-14T07:32:20;3;2;1.4
76045;PMS7003;64741;41.730;44.788;2023-06-14T07:37:26;2.4;2;1.6
76045;PMS7003;64741;41.730;44.788;2023-06-14T07:42:33;3;2;1.4
76045;PMS7003;64741;41.730;44.788;2023-06-14T07:47:26;2.4;2.4;1.8
76045;PMS7003;64741;41.730;44.788;2023-06-14T07:52:32;2.2;1.6;1.4
76045;PMS7003;64741;41.730;44.788;2023-06-14T07:57:24;2.2;2;1.2
76045;PMS7003;64741;41.730;44.788;2023-06-14T08:02:30;1.6;1.4;1
76045;PMS7003;64741;41.730;44.788;2023-06-14T08:07:26;2.4;2.4;1.6
76045;PMS7003;64741;41.730;44.788;2023-06-14T08:12:32;3.4;3;2
76045;PMS7003;64741;41.730;44.788;2023-06-14T08:17:14;4.4;3.2;2.6
76045;PMS7003;64741;41.730;44.788;2023-06-14T08:22:30;2.4;1.8;1.2
76045;PMS7003;64741;41.730;44.788;2023-06-14T08:27:20;2.6;2.6;1.8
76045;PMS7003;64741;41.730;44.788;2023-06-14T08:32:30;2.6;2;1.6
76045;PMS7003;64741;41.730;44.788;2023-06-14T08:37:24;3.2;2.4;1.6
76045;PMS7003;64741;41.730;44.788;2023-06-14T08:42:28;2.4;1.4;1.2
76045;PMS7003;64741;41.730;44.788;2023-06-14T08:47:24;8;7.6;6
76045;PMS7003;64741;41.730;44.788;2023-06-14T08:52:33;108.2;96;66.8
76045;PMS7003;64741;41.730;44.788;2023-06-14T08:57:24;315.8;269.8;168
76045;PMS7003;64741;41.730;44.788;2023-06-14T09:02:32;128.6;112.4;75.2
76045;PMS7003;64741;41.730;44.788;2023-06-14T09:07:26;62.8;49.6;34
76045;PMS7003;64741;41.730;44.788;2023-06-14T09:12:32;36;28.8;20.4
76045;PMS7003;64741;41.730;44.788;2023-06-14T09:17:26;18.2;16.2;11.8
76045;PMS7003;64741;41.730;44.788;2023-06-14T09:21:38;9;8;5.8
76045;PMS7003;64741;41.730;44.788;2023-06-14T09:27:28;3.8;2.4;1.8
76045;PMS7003;64741;41.730;44.788;2023-06-14T09:32:32;3;2.4;1.6
76045;PMS7003;64741;41.730;44.788;2023-06-14T09:37:27;11;10;6.8
76045;PMS7003;64741;41.730;44.788;2023-06-14T09:42:34;30.6;27.6;19
76045;PMS7003;64741;41.730;44.788;2023-06-14T09:47:26;21.6;18.4;14
76045;PMS7003;64741;41.730;44.788;2023-06-14T09:52:32;12;9.6;7.6
76045;PMS7003;64741;41.730;44.788;2023-06-14T09:57:26;7.4;6.2;4.2
76045;PMS7003;64741;41.730;44.788;2023-06-14T10:02:34;4.6;3;2.2
76045;PMS7003;64741;41.730;44.788;2023-06-14T10:07:25;3.2;2;1.4
76045;PMS7003;64741;41.730;44.788;2023-06-14T10:12:32;2.8;1.8;0.8
76045;PMS7003;64741;41.730;44.788;2023-06-14T10:17:27;2;1.8;0.8
76045;PMS7003;64741;41.730;44.788;2023-06-14T10:22:34;1.4;1.4;0.8
76045;PMS7003;64741;41.730;44.788;2023-06-14T10:27:26;1.6;0.6;0.6
76045;PMS7003;64741;41.730;44.788;2023-06-14T10:32:32;1.6;1;0.6
76045;PMS7003;64741;41.730;44.788;2023-06-14T10:37:26;2;1.8;1
76045;PMS7003;64741;41.730;44.788;2023-06-14T10:42:32;2.2;1.4;0.8
76045;PMS7003;64741;41.730;44.788;2023-06-14T10:47:27;1.4;1.2;1
76045;PMS7003;64741;41.730;44.788;2023-06-14T10:52:33;2.6;1.2;0.8
76045;PMS7003;64741;41.730;44.788;2023-06-14T10:57:26;1.2;1.2;0.8
76045;PMS7003;64741;41.730;44.788;2023-06-14T11:02:42;2;1;0.4
76045;PMS7003;64741;41.730;44.788;2023-06-14T11:07:28;1.2;0.6;0.4
76045;PMS7003;64741;41.730;44.788;2023-06-14T11:12:33;1;1;0.6
76045;PMS7003;64741;41.730;44.788;2023-06-14T11:17:26;1.4;1.2;1
76045;PMS7003;64741;41.730;44.788;2023-06-14T11:22:38;1.6;1.2;0.6
76045;PMS7003;64741;41.730;44.788;2023-06-14T11:27:28;1.2;0.8;0.4
76045;PMS7003;64741;41.730;44.788;2023-06-14T11:32:34;0.3;0.3;0.3
76045;PMS7003;64741;41.730;44.788;2023-06-14T11:37:28;1.6;1;0.4
76045;PMS7003;64741;41.730;44.788;2023-06-14T11:42:34;0.6;0.4;0.2
76045;PMS7003;64741;41.730;44.788;2023-06-14T11:47:31;2.4;1.6;0.6
76045;PMS7003;64741;41.730;44.788;2023-06-14T11:52:35;2.2;2;1.2
76045;PMS7003;64741;41.730;44.788;2023-06-14T11:57:28;1.6;1;0.4
76045;PMS7003;64741;41.730;44.788;2023-06-14T12:02:34;2;1.4;0.8
76045;PMS7003;64741;41.730;44.788;2023-06-14T12:07:26;2.4;1.2;0.8
76045;PMS7003;64741;41.730;44.788;2023-06-14T12:12:35;1;0.8;0.4
76045;PMS7003;64741;41.730;44.788;2023-06-14T12:17:03;1.6;1.2;1
76045;PMS7003;64741;41.730;44.788;2023-06-14T12:22:17;1.4;1.2;0.6
76045;PMS7003;64741;41.730;44.788;2023-06-14T12:27:28;3.6;3.4;2.6
76045;PMS7003;64741;41.730;44.788;2023-06-14T12:32:32;3.8;3.2;2.4
76045;PMS7003;64741;41.730;44.788;2023-06-14T12:37:22;3.8;2.8;2.2
76045;PMS7003;64741;41.730;44.788;2023-06-14T12:42:34;2.8;2.2;1.4
76045;PMS7003;64741;41.730;44.788;2023-06-14T12:47:24;4.2;3.2;2.8
76045;PMS7003;64741;41.730;44.788;2023-06-14T12:52:34;11.2;9.6;7.6
76045;PMS7003;64741;41.730;44.788;2023-06-14T12:57:08;5.4;5.2;3.4
76045;PMS7003;64741;41.730;44.788;2023-06-14T13:02:32;4.6;3.6;2.8
76045;PMS7003;64741;41.730;44.788;2023-06-14T13:07:26;2.2;2.2;1.8
76045;PMS7003;64741;41.730;44.788;2023-06-14T13:12:32;2.4;1.8;0.8
76045;PMS7003;64741;41.730;44.788;2023-06-14T13:17:24;1.2;0.8;0.2
76045;PMS7003;64741;41.730;44.788;2023-06-14T13:22:35;0.4;0.4;0
76045;PMS7003;64741;41.730;44.788;2023-06-14T13:27:27;0.4;0;0
76045;PMS7003;64741;41.730;44.788;2023-06-14T13:32:32;1.4;1;0.4
76045;PMS7003;64741;41.730;44.788;2023-06-14T13:37:22;1.2;1.2;0.8
76045;PMS7003;64741;41.730;44.788;2023-06-14T13:41:42;0.6;0.4;0
76045;PMS7003;64741;41.730;44.788;2023-06-14T13:47:26;0.8;0.6;0.4
76045;PMS7003;64741;41.730;44.788;2023-06-14T13:52:34;1;0.6;0.4
76045;PMS7003;64741;41.730;44.788;2023-06-14T13:57:24;0.6;0.6;0.4
76045;PMS7003;64741;41.730;44.788;2023-06-14T14:02:34;1.6;0.8;0.4
76045;PMS7003;64741;41.730;44.788;2023-06-14T14:07:29;1.8;1.2;0.8
76045;PMS7003;64741;41.730;44.788;2023-06-14T14:12:34;3.8;3.4;2.4
76045;PMS7003;64741;41.730;44.788;2023-06-14T14:17:22;2.8;1.8;1.4
76045;PMS7003;64741;41.730;44.788;2023-06-14T14:22:34;2.4;1.4;1
76045;PMS7003;64741;41.730;44.788;2023-06-14T14:27:14;1.6;1.2;0.8
76045;PMS7003;64741;41.730;44.788;2023-06-14T14:32:34;1.6;0.6;0.4
76045;PMS7003;64741;41.730;44.788;2023-06-14T14:37:22;10.6;9.2;7.4
76045;PMS7003;64741;41.730;44.788;2023-06-14T14:42:35;20;17.6;12.8
76045;PMS7003;64741;41.730;44.788;2023-06-14T14:47:20;18.6;16.4;12.6
76045;PMS7003;64741;41.730;44.788;2023-06-14T14:52:34;20.4;18;12.8
76045;PMS7003;64741;41.730;44.788;2023-06-14T14:57:22;18.2;14.8;10.4
76045;PMS7003;64741;41.730;44.788;2023-06-14T15:02:32;7.6;6.4;4.6
76045;PMS7003;64741;41.730;44.788;2023-06-14T15:07:12;5.6;4.8;3.6
76045;PMS7003;64741;41.730;44.788;2023-06-14T15:12:34;5.6;4.8;3.4
76045;PMS7003;64741;41.730;44.788;2023-06-14T15:17:20;4.6;4;3
76045;PMS7003;64741;41.730;44.788;2023-06-14T15:22:34;1.8;1.8;1.4
76045;PMS7003;64741;41.730;44.788;2023-06-14T15:27:24;6.2;5;3.6
76045;PMS7003;64741;41.730;44.788;2023-06-14T15:32:32;8;7;5.4
76045;PMS7003;64741;41.730;44.788;2023-06-14T15:37:24;7.6;6.6;4.8
76045;PMS7003;64741;41.730;44.788;2023-06-14T15:42:34;4.4;3.6;2.8
76045;PMS7003;64741;41.730;44.788;2023-06-14T15:47:28;3.2;2.8;2.2
76045;PMS7003;64741;41.730;44.788;2023-06-14T15:52:20;3;2.8;1.6
76045;PMS7003;64741;41.730;44.788;2023-06-14T15:57:24;2.8;2;1.4
76045;PMS7003;64741;41.730;44.788;2023-06-14T16:02:32;2.4;2.4;1.6
76045;PMS7003;64741;41.730;44.788;2023-06-14T16:07:26;2;1.6;1.2
76045;PMS7003;64741;41.730;44.788;2023-06-14T16:12:34;1.4;1;0.4
76045;PMS7003;64741;41.730;44.788;2023-06-14T16:17:21;2.2;1.6;1
76045;PMS7003;64741;41.730;44.788;2023-06-14T16:22:35;1.6;1.2;1.2
76045;PMS7003;64741;41.730;44.788;2023-06-14T16:27:27;2.2;1.6;1.2
76045;PMS7003;64741;41.730;44.788;2023-06-14T16:32:35;2.4;1.4;0.6
76045;PMS7003;64741;41.730;44.788;2023-06-14T16:37:20;2;1.6;0.6
76045;PMS7003;64741;41.730;44.788;2023-06-14T16:42:31;1;1;0.8
76045;PMS7003;64741;41.730;44.788;2023-06-14T16:47:26;2.2;1.8;1.2
76045;PMS7003;64741;41.730;44.788;2023-06-14T16:52:35;1.6;1.2;0.6
76045;PMS7003;64741;41.730;44.788;2023-06-14T16:57:23;2.4;1.4;1
76045;PMS7003;64741;41.730;44.788;2023-06-14T17:02:33;2;0.8;0.4
76045;PMS7003;64741;41.730;44.788;2023-06-14T17:07:27;1;1;0.6
76045;PMS7003;64741;41.730;44.788;2023-06-14T17:12:23;0.8;0.8;0.8
76045;PMS7003;64741;41.730;44.788;2023-06-14T17:17:09;2;2;1.4
76045;PMS7003;64741;41.730;44.788;2023-06-14T17:22:21;1.2;1.2;0.4
76045;PMS7003;64741;41.730;44.788;2023-06-14T17:27:35;2.4;1.8;1.6
76045;PMS7003;64741;41.730;44.788;2023-06-14T17:32:21;2.4;1.6;1.4
76045;PMS7003;64741;41.730;44.788;2023-06-14T17:37:25;2.8;1.8;0.6
76045;PMS7003;64741;41.730;44.788;2023-06-14T17:42:21;2;2;0.8
76045;PMS7003;64741;41.730;44.788;2023-06-14T17:47:33;2;1.6;1
76045;PMS7003;64741;41.730;44.788;2023-06-14T17:52:05;2.2;1.4;0.8
76045;PMS7003;64741;41.730;44.788;2023-06-14T17:57:25;2;1.2;0.6
76045;PMS7003;64741;41.730;44.788;2023-06-14T18:02:23;1.4;1.2;0.6
76045;PMS7003;64741;41.730;44.788;2023-06-14T18:07:35;1.2;0.6;0.4
76045;PMS7003;64741;41.730;44.788;2023-06-14T18:12:23;1.4;1;0.6
76045;PMS7003;64741;41.730;44.788;2023-06-14T18:17:27;1.4;0.8;0.2
76045;PMS7003;64741;41.730;44.788;2023-06-14T18:22:23;1.8;1;0.8
76045;PMS7003;64741;41.730;44.788;2023-06-14T18:27:35;2.2;1.6;1
76045;PMS7003;64741;41.730;44.788;2023-06-14T18:32:25;1.2;0.8;0.4
76045;PMS7003;64741;41.730;44.788;2023-06-14T18:37:31;1.6;1.4;0.4
76045;PMS7003;64741;41.730;44.788;2023-06-14T18:42:27;1.4;1;0.8
76045;PMS7003;64741;41.730;44.788;2023-06-14T18:47:35;1.2;1;0.8
76045;PMS7003;64741;41.730;44.788;2023-06-14T18:52:27;2.4;1.8;1.4
76045;PMS7003;64741;41.730;44.788;2023-06-14T18:57:31;1.2;1.2;0.8
76045;PMS7003;64741;41.730;44.788;2023-06-14T19:02:21;2;1.6;1
76045;PMS7003;64741;41.730;44.788;2023-06-14T19:07:33;2.2;2;1.2
76045;PMS7003;64741;41.730;44.788;2023-06-14T19:12:23;1.8;1;0.8
76045;PMS7003;64741;41.730;44.788;2023-06-14T19:17:27;2;2;1.4
76045;PMS7003;64741;41.730;44.788;2023-06-14T19:22:23;1.6;1.2;0.6
76045;PMS7003;64741;41.730;44.788;2023-06-14T19:27:33;1.8;1.4;1
76045;PMS7003;64741;41.730;44.788;2023-06-14T19:32:25;1.6;1.6;1
76045;PMS7003;64741;41.730;44.788;2023-06-14T19:37:27;2;1.6;1.2
76045;PMS7003;64741;41.730;44.788;2023-06-14T19:42:25;2.2;1.8;1.4
76045;PMS7003;64741;41.730;44.788;2023-06-14T19:47:19;2.4;1.4;1.2
76045;PMS7003;64741;41.730;44.788;2023-06-14T19:52:11;3;2.2;1
76045;PMS7003;64741;41.730;44.788;2023-06-14T19:57:27;3.2;2.4;1.4
76045;PMS7003;64741;41.730;44.788;2023-06-14T20:02:15;2.4;1.6;1
76045;PMS7003;64741;41.730;44.788;2023-06-14T20:07:33;2;1.4;0.8
76045;PMS7003;64741;41.730;44.788;2023-06-14T20:12:25;2.4;2;1.2
76045;PMS7003;64741;41.730;44.788;2023-06-14T20:17:27;3;2.4;1.8
76045;PMS7003;64741;41.730;44.788;2023-06-14T20:22:13;1.8;1.8;0.8
76045;PMS7003;64741;41.730;44.788;2023-06-14T20:27:33;2.6;2;1.6
76045;PMS7003;64741;41.730;44.788;2023-06-14T20:32:25;2.2;1.6;0.8
76045;PMS7003;64741;41.730;44.788;2023-06-14T20:37:27;1.6;1.2;0.4
76045;PMS7003;64741;41.730;44.788;2023-06-14T20:42:25;2;1.2;0.6
76045;PMS7003;64741;41.730;44.788;2023-06-14T20:47:33;3;2.4;1.4
76045;PMS7003;64741;41.730;44.788;2023-06-14T20:52:25;2;1.8;1
76045;PMS7003;64741;41.730;44.788;2023-06-14T20:57:27;1.8;1.4;0.8
76045;PMS7003;64741;41.730;44.788;2023-06-14T21:02:11;1.4;1.2;0.6
76045;PMS7003;64741;41.730;44.788;2023-06-14T21:06:49;1.6;0.8;0.2
76045;PMS7003;64741;41.730;44.788;2023-06-14T21:12:23;1.4;1;0.4
76045;PMS7003;64741;41.730;44.788;2023-06-14T21:17:27;2.2;1.2;0.8
76045;PMS7003;64741;41.730;44.788;2023-06-14T21:22:25;3.2;2.4;1.4
76045;PMS7003;64741;41.730;44.788;2023-06-14T21:27:33;1.4;1.2;0.6
76045;PMS7003;64741;41.730;44.788;2023-06-14T21:32:25;1.8;1.6;1
76045;PMS7003;64741;41.730;44.788;2023-06-14T21:37:25;2.6;2.4;1.6
76045;PMS7003;64741;41.730;44.788;2023-06-14T21:42:23;1.6;1;0.4
76045;PMS7003;64741;41.730;44.788;2023-06-14T21:47:25;1.6;1;0.8
76045;PMS7003;64741;41.730;44.788;2023-06-14T21:52:21;1.8;1.5;0.5
76045;PMS7003;64741;41.730;44.788;2023-06-14T21:57:25;2;1.2;0.4
76045;PMS7003;64741;41.730;44.788;2023-06-14T22:02:21;1.2;1.2;0.6
76045;PMS7003;64741;41.730;44.788;2023-06-14T22:07:25;2;1.2;0.6
76045;PMS7003;64741;41.730;44.788;2023-06-14T22:12:23;1.6;0.6;0.4
76045;PMS7003;64741;41.730;44.788;2023-06-14T22:17:25;1.6;1;0.6
76045;PMS7003;64741;41.730;44.788;2023-06-14T22:22:23;2.4;1.6;1
76045;PMS7003;64741;41.730;44.788;2023-06-14T22:27:23;1.2;1.2;0.8
76045;PMS7003;64741;41.730;44.788;2023-06-14T22:32:23;2;2;1.4
76045;PMS7003;64741;41.730;44.788;2023-06-14T22:37:25;2;1.4;1
76045;PMS7003;64741;41.730;44.788;2023-06-14T22:42:21;1.6;1.4;1
76045;PMS7003;64741;41.730;44.788;2023-06-14T22:47:25;1.4;1;0.6
76045;PMS7003;64741;41.730;44.788;2023-06-14T22:52:23;1.8;1.2;0.8
76045;PMS7003;64741;41.730;44.788;2023-06-14T22:57:25;1.8;1.4;1.4
76045;PMS7003;64741;41.730;44.788;2023-06-14T23:02:23;1.6;1;1
76045;PMS7003;64741;41.730;44.788;2023-06-14T23:07:19;1.2;1;0.6
76045;PMS7003;64741;41.730;44.788;2023-06-14T23:12:21;2.4;1;0.6
76045;PMS7003;64741;41.730;44.788;2023-06-14T23:17:23;2.2;2;1.4
76045;PMS7003;64741;41.730;44.788;2023-06-14T23:22:21;1.8;1.4;0.8
76045;PMS7003;64741;41.730;44.788;2023-06-14T23:27:07;1.4;1;0.8
76045;PMS7003;64741;41.730;44.788;2023-06-14T23:32:23;1.2;1.2;0.6
76045;PMS7003;64741;41.730;44.788;2023-06-14T23:36:40;2;1.6;1
76045;PMS7003;64741;41.730;44.788;2023-06-14T23:42:21;1.8;1.2;1
76045;PMS7003;64741;41.730;44.788;2023-06-14T23:47:25;1.2;0.8;0.6
76045;PMS7003;64741;41.730;44.788;2023-06-14T23:52:23;2;1.2;0.8
76045;PMS7003;64741;41.730;44.788;2023-06-14T23:57:25;2;1.8;1.2
